Terminal Aerodrome Forecast
Issued by NWS

Home | Current Version | Previous Version | Text Only | Print | Product List | Glossary Off
Versions: 1 2 3 4 5 6 7 8 9 10 11 12 13 14 15 16 17 18

000
FTUS43 KTOP 260520
TAFFOE
TAF
KFOE 260520Z 2606/2706 12005KT P6SM SKC
      TEMPO 2607/2611 3SM BR=

USA.gov is the U.S. government's official web portal to all federal, state and local government web resources and services.